createdAt,value
2022-09-23T00:01:09.239Z,101659.09
2022-09-23T00:03:12.208Z,101659.09
2022-09-23T00:05:15.574Z,65468.00
2022-09-23T00:07:18.170Z,101659.09
2022-09-23T00:09:20.702Z,65468.00
2022-09-23T00:11:28.882Z,101646.38
2022-09-23T00:13:31.525Z,65468.00
2022-09-23T00:15:39.540Z,65468.00
2022-09-23T00:17:42.614Z,101646.38
2022-09-23T00:19:45.195Z,65468.00
2022-09-23T00:21:47.757Z,65468.00
2022-09-23T00:23:50.525Z,65468.00
2022-09-23T00:25:57.752Z,65468.00
2022-09-23T00:28:00.338Z,65468.00
2022-09-23T00:30:06.657Z,65468.00
2022-09-23T00:32:09.300Z,65468.00
2022-09-23T00:34:11.840Z,65468.00
2022-09-23T00:36:16.395Z,65468.00
2022-09-23T00:38:19.320Z,65468.00
2022-09-23T00:40:21.944Z,65468.00
2022-09-23T00:42:24.939Z,65468.00
2022-09-23T00:44:49.516Z,65468.00
2022-09-23T00:46:52.716Z,65468.00
2022-09-23T00:49:12.502Z,65468.00
2022-09-23T00:51:20.993Z,101646.38
2022-09-23T00:53:26.805Z,65468.00
2022-09-23T00:55:35.549Z,65468.00
2022-09-23T00:58:11.144Z,65468.00
2022-09-23T01:00:14.848Z,65468.00
2022-09-23T01:02:21.186Z,65468.00
2022-09-23T01:04:26.993Z,65468.00
2022-09-23T01:06:29.894Z,65468.00
2022-09-23T01:08:32.552Z,65468.00
2022-09-23T01:11:06.168Z,65468.00
2022-09-23T01:13:34.006Z,65468.00
2022-09-23T01:15:44.802Z,101599.25
2022-09-23T01:18:33.077Z,101599.25
2022-09-23T01:21:02.211Z,101599.25
2022-09-23T01:23:28.739Z,65468.00
2022-09-23T01:26:05.733Z,65468.00
2022-09-23T01:28:48.172Z,65468.00
2022-09-23T01:31:11.772Z,65468.00
2022-09-23T01:33:31.873Z,65468.00
2022-09-23T01:36:14.271Z,65468.00
2022-09-23T01:38:48.509Z,65468.00
2022-09-23T01:40:59.950Z,65468.00
2022-09-23T01:43:13.669Z,65468.00
2022-09-23T01:45:41.517Z,101559.94
2022-09-23T01:47:55.141Z,101584.75
2022-09-23T01:50:33.305Z,101583.41
2022-09-23T01:52:47.329Z,101522.91
2022-09-23T01:55:02.714Z,101555.47
2022-09-23T01:57:23.768Z,101568.03
2022-09-23T01:59:58.458Z,101557.44
2022-09-23T02:02:29.373Z,101572.78
2022-09-23T02:04:41.096Z,101568.75
2022-09-23T02:06:54.487Z,101567.50
2022-09-23T02:09:03.284Z,101551.59
2022-09-23T02:11:11.238Z,101549.91
2022-09-23T02:13:30.187Z,101501.53
2022-09-23T02:15:58.325Z,101564.72
2022-09-23T02:18:34.558Z,101529.84
2022-09-23T02:20:41.310Z,101563.81
2022-09-23T02:23:12.480Z,101565.00
2022-09-23T02:25:17.986Z,101554.47
2022-09-23T02:28:09.492Z,101541.88
2022-09-23T02:30:28.631Z,101537.41
2022-09-23T02:32:55.096Z,101512.22
2022-09-23T02:35:15.691Z,101543.69
2022-09-23T02:37:40.639Z,101551.88
2022-09-23T02:40:00.521Z,101525.50
2022-09-23T02:42:10.070Z,101512.94
2022-09-23T02:44:17.146Z,101551.22
2022-09-23T02:46:20.465Z,101509.16
2022-09-23T02:48:47.603Z,101545.44
2022-09-23T02:50:50.474Z,101518.56
2022-09-23T02:52:53.003Z,101503.56
2022-09-23T02:54:56.240Z,101499.69
2022-09-23T02:57:02.865Z,101531.94
2022-09-23T02:59:06.258Z,101505.97
2022-09-23T03:01:27.167Z,101522.69
2022-09-23T03:04:07.183Z,101524.69
2022-09-23T03:07:01.948Z,101408.19
2022-09-23T03:09:21.747Z,101509.66
2022-09-23T03:11:24.776Z,101466.97
2022-09-23T03:13:51.148Z,101521.97
2022-09-23T03:16:06.146Z,101519.38
2022-09-23T03:18:17.500Z,101512.53
2022-09-23T03:20:28.076Z,101511.56
2022-09-23T03:22:37.803Z,101428.88
2022-09-23T03:24:44.916Z,101460.75
2022-09-23T03:26:48.918Z,101422.94
2022-09-23T03:28:53.182Z,101399.63
2022-09-23T03:31:00.356Z,101468.66
2022-09-23T03:33:08.571Z,101501.03
2022-09-23T03:35:13.691Z,101499.03
2022-09-23T03:37:24.022Z,101514.25
2022-09-23T03:39:52.678Z,101511.81
2022-09-23T03:41:59.958Z,101505.78
2022-09-23T03:44:03.285Z,101482.66
2022-09-23T03:46:08.246Z,101485.47
2022-09-23T03:48:10.877Z,101472.69
2022-09-23T03:50:14.658Z,101487.78
2022-09-23T03:52:20.844Z,101446.50
2022-09-23T03:54:24.327Z,101496.38
2022-09-23T03:56:26.870Z,101490.75
2022-09-23T03:58:29.411Z,101416.28
2022-09-23T04:00:32.048Z,101467.44
2022-09-23T04:02:42.582Z,101485.59
2022-09-23T04:04:45.385Z,101442.91
2022-09-23T04:06:48.297Z,101486.59
2022-09-23T04:08:50.840Z,101455.50
2022-09-23T04:10:54.987Z,101455.50
2022-09-23T04:12:57.638Z,101455.50
2022-09-23T04:15:00.211Z,101455.50
2022-09-23T04:17:02.836Z,101474.97
2022-09-23T04:19:05.424Z,101360.66
2022-09-23T04:21:07.972Z,101379.81
2022-09-23T04:23:10.626Z,101469.97
2022-09-23T04:25:13.152Z,101459.19
2022-09-23T04:27:15.731Z,101458.56
2022-09-23T04:29:18.447Z,101473.28
2022-09-23T04:31:23.587Z,101422.78
2022-09-23T04:33:26.419Z,101420.53
2022-09-23T04:35:30.293Z,101425.31
2022-09-23T04:37:32.844Z,101457.97
2022-09-23T04:39:35.379Z,101402.94
2022-09-23T04:41:50.256Z,101455.88
2022-09-23T04:43:52.998Z,101450.41
2022-09-23T04:46:07.024Z,101453.47
2022-09-23T04:48:13.958Z,101454.78
2022-09-23T04:50:16.976Z,101406.25
2022-09-23T04:52:27.681Z,101438.78
2022-09-23T04:54:30.291Z,101427.41
2022-09-23T04:56:39.858Z,101457.31
2022-09-23T04:58:44.319Z,101439.88
2022-09-23T05:00:46.997Z,101308.84
2022-09-23T05:02:50.693Z,101466.19
2022-09-23T05:04:53.222Z,101430.16
2022-09-23T05:06:57.462Z,101406.13
2022-09-23T05:09:06.667Z,101409.69
2022-09-23T05:11:14.720Z,101464.25
2022-09-23T05:13:17.308Z,101437.19
2022-09-23T05:15:21.226Z,101438.81
2022-09-23T05:17:24.111Z,101459.84
2022-09-23T05:19:26.680Z,101451.59
2022-09-23T05:21:29.744Z,101421.28
2022-09-23T05:23:32.352Z,101428.41
2022-09-23T05:25:38.192Z,101429.31
2022-09-23T05:27:41.226Z,101446.28
2022-09-23T05:29:43.835Z,101449.34
2022-09-23T05:31:46.636Z,101352.53
2022-09-23T05:33:53.543Z,101455.03
2022-09-23T05:35:56.126Z,101412.53
2022-09-23T05:37:58.656Z,101449.84
2022-09-23T05:40:01.454Z,101364.94
2022-09-23T05:42:04.992Z,101417.91
2022-09-23T05:44:07.574Z,101418.84
2022-09-23T05:46:26.402Z,101438.50
2022-09-23T05:48:31.669Z,101400.75
2022-09-23T05:50:34.263Z,101454.06
2022-09-23T05:52:37.500Z,101448.66
2022-09-23T05:54:42.752Z,101442.38
2022-09-23T05:56:45.402Z,101440.22
2022-09-23T05:58:55.799Z,101461.88
2022-09-23T06:00:58.904Z,101315.84
2022-09-23T06:03:01.559Z,101469.00
2022-09-23T06:05:06.724Z,101435.38
2022-09-23T06:07:11.592Z,101465.63
2022-09-23T06:09:15.306Z,101459.47
2022-09-23T06:11:18.012Z,101422.00
2022-09-23T06:13:22.697Z,101457.25
2022-09-23T06:15:25.294Z,101429.88
2022-09-23T06:18:14.257Z,101461.69
2022-09-23T06:24:15.506Z,101458.75
2022-09-23T06:26:20.130Z,101380.38
2022-09-23T06:28:34.766Z,101427.03
2022-09-23T06:30:37.344Z,101456.72
2022-09-23T06:32:40.029Z,101405.53
2022-09-23T06:34:51.624Z,101442.16
2022-09-23T06:36:55.676Z,101441.59
2022-09-23T06:38:58.249Z,101451.03
2022-09-23T06:41:02.539Z,101435.16
2022-09-23T06:43:05.217Z,101312.63
2022-09-23T06:45:11.883Z,101431.06
2022-09-23T06:47:14.467Z,101432.13
2022-09-23T06:49:17.473Z,101437.00
2022-09-23T06:51:20.131Z,101413.06
2022-09-23T06:53:25.655Z,101466.56
2022-09-23T06:55:29.169Z,101438.31
2022-09-23T06:57:33.240Z,101470.81
2022-09-23T06:59:35.840Z,101431.91
2022-09-23T07:01:38.665Z,101332.19
2022-09-23T07:03:41.393Z,101411.78
2022-09-23T07:05:43.966Z,101467.22
2022-09-23T07:07:46.524Z,101448.84
2022-09-23T07:09:49.918Z,101447.81
2022-09-23T07:11:52.505Z,101431.25
2022-09-23T07:13:55.084Z,101443.91
2022-09-23T07:15:59.017Z,101425.75
2022-09-23T07:18:03.140Z,101462.81
2022-09-23T07:20:06.288Z,101401.91
2022-09-23T07:22:11.617Z,101442.16
2022-09-23T07:24:14.246Z,101457.19
2022-09-23T07:26:19.767Z,101451.88
2022-09-23T07:28:29.083Z,101398.06
2022-09-23T07:30:43.091Z,101451.69
2022-09-23T07:32:49.404Z,101438.72
2022-09-23T07:34:53.418Z,101265.41
2022-09-23T07:36:58.927Z,101440.97
2022-09-23T07:39:03.452Z,101369.84
2022-09-23T07:41:10.945Z,101454.81
2022-09-23T07:43:14.060Z,101440.06
2022-09-23T07:45:19.215Z,101416.38
2022-09-23T07:47:21.869Z,101354.69
2022-09-23T07:49:25.780Z,101449.47
2022-09-23T07:51:36.027Z,101439.59
2022-09-23T08:14:42.566Z,101447.81
2022-09-23T08:16:47.118Z,101433.59
2022-09-23T08:18:51.296Z,101424.75
2022-09-23T08:20:53.887Z,101412.81
2022-09-23T08:22:56.428Z,101417.72
2022-09-23T08:24:58.998Z,101392.22
2022-09-23T08:27:01.908Z,101410.69
2022-09-23T08:29:06.518Z,101432.44
2022-09-23T08:31:09.134Z,101420.03
2022-09-23T08:33:12.415Z,101399.69
2022-09-23T08:35:15.173Z,101385.66
2022-09-23T08:37:17.979Z,101405.50
2022-09-23T08:39:21.221Z,101404.06
2022-09-23T08:41:42.553Z,101388.38
2022-09-23T08:43:53.595Z,101426.88
2022-09-23T08:46:00.808Z,101399.91
2022-09-23T08:48:13.238Z,101393.34
2022-09-23T08:50:22.052Z,101396.72
2022-09-23T08:52:50.313Z,101409.19
2022-09-23T08:54:55.587Z,101375.44
2022-09-23T08:57:17.826Z,101296.72
2022-09-23T09:00:05.547Z,101400.28
2022-09-23T09:02:21.029Z,101372.56
2022-09-23T09:04:49.385Z,101176.06
2022-09-23T09:07:35.172Z,101147.56
2022-09-23T09:10:05.353Z,101166.31
2022-09-23T09:15:25.159Z,101307.78
2022-09-23T09:17:46.007Z,101322.50
2022-09-23T09:20:08.241Z,101371.53
2022-09-23T09:22:24.897Z,101308.00
2022-09-23T09:24:45.049Z,101162.16
2022-09-23T09:29:36.963Z,101157.13
2022-09-23T09:31:48.955Z,101369.13
2022-09-23T09:34:02.188Z,101379.69
2022-09-23T09:36:33.150Z,101365.13
2022-09-23T09:38:40.737Z,101286.53
2022-09-23T09:40:52.093Z,101115.47
2022-09-23T09:42:57.841Z,101262.97
2022-09-23T09:45:57.782Z,101364.91
2022-09-23T09:48:33.158Z,101357.03
2022-09-23T09:50:52.262Z,101331.00
2022-09-23T09:53:28.146Z,101353.69
2022-09-23T09:55:33.033Z,101327.38
2022-09-23T09:58:05.225Z,101137.91
2022-09-23T10:00:46.242Z,101265.38
2022-09-23T10:03:06.391Z,101243.38
2022-09-23T10:06:02.395Z,101227.97
2022-09-23T10:08:40.762Z,101304.53
2022-09-23T10:11:45.000Z,101321.88
2022-09-23T10:14:21.558Z,101307.47
2022-09-23T10:20:39.085Z,101185.59
2022-09-23T10:23:33.892Z,101189.88
2022-09-23T10:26:39.121Z,101315.19
2022-09-23T10:28:50.434Z,101305.06
2022-09-23T10:32:06.995Z,101313.56
2022-09-23T10:34:59.859Z,101217.53
2022-09-23T10:37:39.287Z,101294.97
2022-09-23T10:40:41.899Z,101324.31
2022-09-23T10:43:30.140Z,101317.91
2022-09-23T10:45:59.152Z,101318.19
2022-09-23T10:48:40.814Z,101317.69
2022-09-23T10:50:51.906Z,101259.94
2022-09-23T10:56:51.373Z,101315.84
2022-09-23T10:59:36.761Z,101305.72
2022-09-23T11:02:24.779Z,101308.41
2022-09-23T11:04:51.173Z,101300.41
2022-09-23T11:07:59.676Z,101298.53
2022-09-23T11:10:45.394Z,101290.03
2022-09-23T11:16:54.693Z,101283.34
2022-09-23T11:19:45.958Z,101276.41
2022-09-23T11:22:21.879Z,101274.72
2022-09-23T11:24:58.284Z,101264.03
2022-09-23T11:27:26.695Z,101267.16
2022-09-23T11:30:03.394Z,101236.81
2022-09-23T11:32:40.351Z,101252.22
2022-09-23T11:51:31.674Z,100995.81
2022-09-23T11:53:50.050Z,101223.41
2022-09-23T11:56:29.864Z,101218.13
2022-09-23T11:59:40.629Z,101236.75
2022-09-23T12:03:03.017Z,101214.41
2022-09-23T12:05:21.304Z,101198.28
2022-09-23T12:07:54.127Z,101188.47
2022-09-23T12:10:07.050Z,101218.00
2022-09-23T12:12:48.897Z,101209.78
2022-09-23T12:15:08.981Z,101151.59
2022-09-23T12:17:40.902Z,101180.00
2022-09-23T12:20:03.177Z,101138.53
2022-09-23T12:22:34.454Z,101179.47
2022-09-23T12:25:17.369Z,101181.59
2022-09-23T12:34:49.146Z,101186.84
2022-09-23T12:36:52.079Z,101142.75
2022-09-23T12:39:19.384Z,101184.19
2022-09-23T12:41:40.908Z,101178.84
2022-09-23T12:44:15.000Z,101160.81
2022-09-23T12:46:25.744Z,101126.19
2022-09-23T12:48:46.189Z,101173.44
2022-09-23T12:50:53.755Z,101146.63
2022-09-23T12:52:56.670Z,101098.53
2022-09-23T12:55:22.208Z,101172.84
2022-09-23T12:57:36.632Z,101168.00
2022-09-23T13:00:12.675Z,101164.28
2022-09-23T13:02:29.211Z,101162.66
2022-09-23T13:05:01.206Z,101162.09
2022-09-23T13:07:09.463Z,101152.25
2022-09-23T13:09:32.377Z,101139.56
2022-09-23T13:11:40.474Z,101143.81
2022-09-23T13:13:45.787Z,101125.16
2022-09-23T13:15:48.726Z,101147.16
2022-09-23T13:17:51.326Z,101148.47
2022-09-23T13:20:19.978Z,101152.38
2022-09-23T13:23:03.962Z,101145.31
2022-09-23T13:25:41.249Z,101141.97
2022-09-23T13:27:47.898Z,101106.03
2022-09-23T13:30:03.415Z,101122.78
2022-09-23T13:32:20.183Z,101123.31
2022-09-23T13:34:27.256Z,101133.59
2022-09-23T13:36:29.902Z,101107.59
2022-09-23T13:38:33.464Z,101011.34
2022-09-23T13:40:37.246Z,101112.69
2022-09-23T13:42:41.959Z,101117.06
2022-09-23T13:44:45.933Z,101095.44
2022-09-23T13:46:58.324Z,101099.38
2022-09-23T13:49:00.996Z,101065.13
2022-09-23T13:51:11.631Z,101103.38
2022-09-23T13:53:25.802Z,101093.72
2022-09-23T13:55:32.827Z,101074.59
2022-09-23T13:57:35.531Z,100969.06
2022-09-23T13:59:42.251Z,101091.66
2022-09-23T14:01:47.206Z,101030.06
2022-09-23T14:03:51.430Z,100842.59
2022-09-23T14:05:56.506Z,101073.81
2022-09-23T14:08:00.505Z,101044.09
2022-09-23T14:10:05.879Z,101061.44
2022-09-23T14:12:10.390Z,101077.97
2022-09-23T14:14:15.787Z,101062.66
2022-09-23T14:16:19.758Z,100982.53
2022-09-23T14:18:43.124Z,101071.28
2022-09-23T14:20:50.327Z,101055.38
2022-09-23T14:23:14.741Z,101069.03
2022-09-23T14:25:51.601Z,100989.69
2022-09-23T14:27:57.363Z,101046.75
2022-09-23T14:30:04.679Z,101062.69
2022-09-23T14:32:31.296Z,101039.75
2022-09-23T14:35:05.687Z,101059.28
2022-09-23T14:37:58.818Z,101047.66
2022-09-23T14:40:01.869Z,101053.34
2022-09-23T14:42:21.688Z,101020.28
2022-09-23T14:44:26.463Z,101051.22
2022-09-23T14:46:35.997Z,101034.00
2022-09-23T14:48:38.692Z,101031.41
2022-09-23T14:50:49.380Z,101038.94
2022-09-23T14:52:52.254Z,101045.38
2022-09-23T14:54:54.898Z,101017.19
2022-09-23T14:56:57.824Z,101030.50
2022-09-23T14:59:00.774Z,101035.09
2022-09-23T15:01:05.149Z,101044.44
2022-09-23T15:03:15.408Z,101043.63
2022-09-23T15:05:23.851Z,101009.72
2022-09-23T15:07:26.811Z,101030.97
2022-09-23T15:09:33.433Z,101003.38
2022-09-23T15:11:36.418Z,101034.19
2022-09-23T15:13:44.291Z,101017.69
2022-09-23T15:15:47.308Z,101019.81
2022-09-23T15:17:50.035Z,101004.69
2022-09-23T15:19:57.668Z,100955.09
2022-09-23T15:22:00.305Z,101030.47
2022-09-23T15:24:03.070Z,100922.78
2022-09-23T15:26:11.541Z,100979.59
2022-09-23T15:28:18.227Z,101019.91
2022-09-23T15:30:21.240Z,100949.63
2022-09-23T15:32:24.507Z,101004.84
2022-09-23T15:34:27.076Z,100970.09
2022-09-23T15:36:29.816Z,101012.59
2022-09-23T15:38:32.966Z,101021.63
2022-09-23T15:40:37.691Z,100970.66
2022-09-23T15:42:40.573Z,100871.19
2022-09-23T15:44:43.485Z,100908.56
2022-09-23T15:46:48.783Z,101002.53
2022-09-23T15:49:17.214Z,100952.88
2022-09-23T15:51:20.774Z,101004.13
2022-09-23T15:53:27.242Z,100780.97
2022-09-23T15:55:32.144Z,101005.69
2022-09-23T15:57:34.724Z,100925.25
2022-09-23T15:59:38.200Z,101017.38
2022-09-23T16:01:44.147Z,100789.72
2022-09-23T16:03:46.828Z,100992.44
2022-09-23T16:05:50.406Z,100932.44
2022-09-23T16:07:53.201Z,100977.56
2022-09-23T16:09:58.697Z,100976.50
2022-09-23T16:12:02.843Z,101004.13
2022-09-23T16:14:05.418Z,100997.75
2022-09-23T16:16:08.908Z,100987.44
2022-09-23T16:18:12.746Z,101012.16
2022-09-23T16:20:17.827Z,100982.38
2022-09-23T16:22:20.450Z,100980.81
2022-09-23T16:24:27.429Z,101003.38
2022-09-23T16:26:34.722Z,100879.94
2022-09-23T16:28:37.886Z,100953.22
2022-09-23T16:30:47.762Z,100980.06
2022-09-23T16:32:51.779Z,100985.63
2022-09-23T16:34:54.337Z,100988.81
2022-09-23T16:36:56.992Z,100889.47
2022-09-23T16:39:07.002Z,100985.88
2022-09-23T16:41:11.406Z,100997.00
2022-09-23T16:43:42.460Z,100987.44
2022-09-23T16:45:47.171Z,100989.28
2022-09-23T16:47:51.917Z,100999.88
2022-09-23T16:49:54.505Z,100878.13
2022-09-23T16:51:57.042Z,100986.50
2022-09-23T16:54:00.251Z,100963.09
2022-09-23T16:56:09.673Z,100829.94
2022-09-23T16:58:17.203Z,100986.44
2022-09-23T17:00:38.683Z,100967.47
2022-09-23T17:03:00.180Z,100961.09
2022-09-23T17:05:04.125Z,100969.75
2022-09-23T17:07:12.821Z,100979.78
2022-09-23T17:09:42.034Z,100975.03
2022-09-23T17:11:47.906Z,100994.63
2022-09-23T17:13:50.760Z,100946.97
2022-09-23T17:15:55.596Z,100923.81
2022-09-23T17:18:08.701Z,100977.41
2022-09-23T17:20:13.212Z,100831.69
2022-09-23T17:22:15.759Z,100920.91
2022-09-23T17:24:18.340Z,100891.06
2022-09-23T17:26:23.377Z,100995.06
2022-09-23T17:28:25.992Z,100996.31
2022-09-23T17:30:28.893Z,101003.44
2022-09-23T17:32:31.836Z,100936.56
2022-09-23T17:34:35.068Z,100995.56
2022-09-23T17:37:04.218Z,100983.03
2022-09-23T17:39:07.268Z,100992.75
2022-09-23T17:41:10.293Z,100952.81
2022-09-23T17:43:13.299Z,100963.41
2022-09-23T17:45:15.990Z,100984.09
2022-09-23T17:47:18.629Z,100967.31
2022-09-23T17:49:22.033Z,100985.84
2022-09-23T17:51:25.612Z,100988.19
2022-09-23T17:53:31.852Z,100992.44
2022-09-23T17:55:34.408Z,100933.28
2022-09-23T17:57:37.001Z,100982.41
2022-09-23T17:59:39.659Z,100969.97
2022-09-23T18:01:42.326Z,100918.19
2022-09-23T18:03:45.253Z,100981.25
2022-09-23T18:05:48.138Z,100980.97
2022-09-23T18:07:50.748Z,100978.03
2022-09-23T18:09:53.342Z,100995.28
2022-09-23T18:11:56.453Z,100974.94
2022-09-23T18:14:03.310Z,100989.31
2022-09-23T18:16:06.237Z,100976.78
2022-09-23T18:18:08.975Z,101000.16
2022-09-23T18:20:11.570Z,100998.53
2022-09-23T18:22:14.259Z,100947.88
2022-09-23T18:24:31.952Z,100998.78
2022-09-23T18:26:35.681Z,100948.09
2022-09-23T18:28:38.244Z,100970.97
2022-09-23T18:30:56.592Z,100940.84
2022-09-23T18:32:59.868Z,100996.00
2022-09-23T18:35:02.514Z,100978.16
2022-09-23T18:37:14.996Z,100965.81
2022-09-23T18:39:18.472Z,100952.13
2022-09-23T18:41:22.573Z,100874.25
2022-09-23T18:43:37.258Z,100980.19
2022-09-23T18:45:43.347Z,100948.00
2022-09-23T18:48:04.417Z,100966.56
2022-09-23T18:51:02.823Z,100989.09
2022-09-23T18:53:17.267Z,100880.03
2022-09-23T18:55:19.820Z,100980.63
2022-09-23T18:57:22.361Z,100991.97
2022-09-23T18:59:41.135Z,100959.16
2022-09-23T19:01:45.932Z,100993.09
2022-09-23T19:03:48.913Z,100967.75
2022-09-23T19:05:51.562Z,100984.16
2022-09-23T19:07:54.106Z,100980.41
2022-09-23T19:09:56.687Z,100982.50
2022-09-23T19:11:59.367Z,100977.38
2022-09-23T19:14:03.877Z,100984.53
2022-09-23T19:16:10.692Z,100836.47
2022-09-23T19:18:13.292Z,100980.06
2022-09-23T19:20:15.938Z,100974.16
2022-09-23T19:22:32.864Z,100951.22
2022-09-23T19:24:35.413Z,100957.94
2022-09-23T19:26:40.653Z,100959.56
2022-09-23T19:28:50.056Z,100884.19
2022-09-23T19:31:44.017Z,100977.31
2022-09-23T19:33:57.409Z,100980.66
2022-09-23T19:36:00.003Z,100968.28
2022-09-23T19:38:10.694Z,100982.84
2022-09-23T19:40:13.551Z,100898.53
2022-09-23T19:42:16.202Z,100916.03
2022-09-23T19:44:20.280Z,100964.75
2022-09-23T19:46:23.233Z,100970.81
2022-09-23T19:48:25.832Z,100972.06
2022-09-23T19:50:34.477Z,100918.16
2022-09-23T19:52:37.874Z,100867.44
2022-09-23T19:54:40.430Z,100971.78
2022-09-23T19:56:47.757Z,100980.81
2022-09-23T19:58:54.241Z,100954.06
2022-09-23T20:00:57.564Z,100955.81
2022-09-23T20:03:00.235Z,100956.84
2022-09-23T20:05:02.816Z,100974.78
2022-09-23T20:07:05.451Z,100964.94
2022-09-23T20:09:08.024Z,100973.97
2022-09-23T20:11:30.105Z,100955.09
2022-09-23T20:13:33.904Z,100937.50
2022-09-23T20:15:37.348Z,100928.63
2022-09-23T20:17:42.791Z,100955.69
2022-09-23T20:19:45.561Z,100956.81
2022-09-23T20:22:08.091Z,100851.00
2022-09-23T20:24:12.090Z,100948.59
2022-09-23T20:26:33.460Z,100838.84
2022-09-23T20:28:36.008Z,100941.28
2022-09-23T20:30:39.189Z,100925.81
2022-09-23T20:32:44.784Z,100928.81
2022-09-23T20:34:48.834Z,100928.81
2022-09-23T20:36:51.442Z,100937.03
2022-09-23T20:39:00.279Z,100959.69
2022-09-23T20:41:03.076Z,100947.44
2022-09-23T20:43:18.289Z,100938.06
2022-09-23T20:45:20.835Z,100938.06
2022-09-23T20:47:24.807Z,100955.00
2022-09-23T20:49:34.239Z,100949.50
2022-09-23T20:51:40.214Z,100941.75
2022-09-23T20:53:43.140Z,100922.53
2022-09-23T20:55:50.462Z,100938.06
2022-09-23T20:57:53.062Z,100935.34
2022-09-23T20:59:55.615Z,100935.34
2022-09-23T21:01:58.688Z,100945.63
2022-09-23T21:04:04.078Z,100864.03
2022-09-23T21:06:08.870Z,100900.22
2022-09-23T21:08:12.468Z,100933.00
2022-09-23T21:10:15.178Z,100945.47
2022-09-23T21:12:17.787Z,65468.00
2022-09-23T21:14:22.541Z,100938.47
2022-09-23T21:16:25.891Z,100944.06
2022-09-23T21:18:28.562Z,100910.47
2022-09-23T21:20:31.717Z,100925.44
2022-09-23T21:22:38.509Z,100838.06
2022-09-23T21:25:16.022Z,100946.44
2022-09-23T21:27:03.979Z,100892.97
2022-09-23T21:29:06.906Z,100930.19
2022-09-23T21:31:22.788Z,100935.66
2022-09-23T21:33:25.668Z,100919.19
2022-09-23T21:35:28.604Z,100920.09
2022-09-23T21:37:45.390Z,100901.22
2022-09-23T21:40:08.135Z,100906.25
2022-09-23T21:42:12.125Z,100891.09
2022-09-23T21:44:14.779Z,100932.66
2022-09-23T21:46:20.263Z,100927.94
2022-09-23T21:48:24.345Z,100899.06
2022-09-23T21:50:29.948Z,100906.34
2022-09-23T21:52:32.554Z,100893.25
2022-09-23T21:54:35.191Z,100901.44
2022-09-23T21:56:37.956Z,100892.66
2022-09-23T21:58:42.419Z,100922.59
2022-09-23T22:00:45.191Z,100856.44
2022-09-23T22:02:47.848Z,100925.22
2022-09-23T22:04:50.477Z,100903.88
2022-09-23T22:06:54.117Z,100893.81
2022-09-23T22:09:01.341Z,100927.38
2022-09-23T22:11:33.514Z,100905.44
2022-09-23T22:13:36.088Z,100906.59
2022-09-23T22:15:38.718Z,100921.53
2022-09-23T22:17:41.351Z,100921.53
2022-09-23T22:19:47.107Z,100882.94
2022-09-23T22:21:50.626Z,100788.28
2022-09-23T22:23:54.952Z,100912.75
2022-09-23T22:26:02.933Z,100911.94
2022-09-23T22:28:24.723Z,100907.72
2022-09-23T22:30:45.928Z,100907.72
2022-09-23T22:32:54.260Z,100830.50
2022-09-23T22:34:57.828Z,100899.22
2022-09-23T22:37:01.049Z,100893.41
2022-09-23T22:39:06.549Z,100748.78
2022-09-23T22:41:14.243Z,100890.78
2022-09-23T22:43:16.808Z,100875.22
2022-09-23T22:45:19.428Z,100890.78
2022-09-23T22:47:24.253Z,100890.78
2022-09-23T22:49:26.886Z,100779.38
2022-09-23T22:51:29.436Z,100896.03
2022-09-23T22:53:32.079Z,100904.97
2022-09-23T22:56:10.957Z,100859.28
2022-09-23T22:58:31.329Z,100883.25
2022-09-23T23:00:34.594Z,100896.03
2022-09-23T23:02:37.159Z,100867.84
2022-09-23T23:04:39.753Z,100875.28
2022-09-23T23:06:42.990Z,100884.53
2022-09-23T23:08:46.065Z,100886.91
2022-09-23T23:10:48.751Z,100787.81
2022-09-23T23:12:52.683Z,100875.41
2022-09-23T23:14:56.164Z,100881.19
2022-09-23T23:16:59.544Z,100887.38
2022-09-23T23:19:12.145Z,100892.19
2022-09-23T23:21:18.258Z,100890.81
2022-09-23T23:23:20.833Z,100890.28
2022-09-23T23:25:23.454Z,100870.03
2022-09-23T23:27:26.035Z,100876.44
2022-09-23T23:29:28.724Z,100771.19
2022-09-23T23:31:32.307Z,100849.16
2022-09-23T23:33:35.538Z,100855.56
2022-09-23T23:35:38.114Z,100870.19
2022-09-23T23:37:40.726Z,100879.13
2022-09-23T23:39:43.263Z,100850.25
2022-09-23T23:41:45.836Z,100875.22
2022-09-23T23:43:55.727Z,100879.59
2022-09-23T23:46:00.304Z,100732.47
2022-09-23T23:48:13.633Z,100833.44
2022-09-23T23:50:16.224Z,100856.31
2022-09-23T23:52:18.772Z,100854.22
2022-09-23T23:54:21.654Z,100854.34
2022-09-23T23:56:26.332Z,100826.72
2022-09-23T23:58:29.592Z,100876.75
